Terminal Aerodrome Forecast
Issued by NWS

Home | Current Version | Previous Version | Graphics & Text | Print | Product List | Glossary On
Versions: 1 2 3 4 5 6 7 8 9 10 11 12 13 14 15 16 17
000
FTUS43 KUNR 192332
TAFGCC
TAF
KGCC 192332Z 2000/2024 30012KT P6SM SCT010 BKN035
     FM200100 25010KT P6SM SCT080
     FM200700 23015G25KT P6SM SCT120
     FM201600 22022G32KT P6SM SCT200=

USA.gov is the U.S. government's official web portal to all federal, state and local government web resources and services.